createdAt,value
2018-12-14T00:00:28.682Z,15.68
2018-12-14T00:02:59.017Z,15.13
2018-12-14T00:05:28.916Z,14.30
2018-12-14T00:07:58.761Z,16.55
2018-12-14T00:10:28.631Z,13.58
2018-12-14T00:12:58.556Z,16.25
2018-12-14T00:15:28.561Z,14.50
2018-12-14T00:17:58.485Z,15.18
2018-12-14T00:20:28.375Z,16.07
2018-12-14T00:22:59.025Z,13.90
2018-12-14T00:25:28.962Z,14.75
2018-12-14T00:27:58.844Z,17.23
2018-12-14T00:30:28.860Z,16.45
2018-12-14T00:32:58.727Z,16.45
2018-12-14T00:35:29.001Z,15.28
2018-12-14T00:37:58.907Z,15.00
2018-12-14T00:40:28.789Z,14.93
2018-12-14T00:42:58.752Z,15.53
2018-12-14T00:45:28.940Z,15.00
2018-12-14T00:47:58.800Z,15.18
2018-12-14T00:50:28.652Z,13.75
2018-12-14T00:52:58.612Z,16.07
2018-12-14T00:55:28.482Z,14.85
2018-12-14T00:57:58.430Z,13.88
2018-12-14T01:00:28.426Z,11.95
2018-12-14T01:02:58.363Z,12.58
2018-12-14T01:05:28.346Z,12.60
2018-12-14T01:07:58.237Z,11.73
2018-12-14T01:10:28.181Z,13.20
2018-12-14T01:12:58.207Z,13.95
2018-12-14T01:15:28.174Z,12.90
2018-12-14T01:17:58.231Z,13.72
2018-12-14T01:20:28.107Z,14.20
2018-12-14T01:22:58.089Z,16.90
2018-12-14T01:25:28.081Z,15.45
2018-12-14T01:27:57.940Z,15.98
2018-12-14T01:30:27.876Z,15.90
2018-12-14T01:32:57.755Z,16.45
2018-12-14T01:35:27.664Z,16.55
2018-12-14T01:37:57.514Z,15.63
2018-12-14T01:40:27.421Z,16.32
2018-12-14T01:42:57.323Z,14.85
2018-12-14T01:45:27.278Z,15.35
2018-12-14T01:47:57.180Z,16.60
2018-12-14T01:50:27.094Z,16.25
2018-12-14T01:52:56.962Z,16.40
2018-12-14T01:55:26.869Z,16.07
2018-12-14T01:57:56.830Z,14.90
2018-12-14T02:00:26.774Z,15.60
2018-12-14T02:02:56.771Z,14.90
2018-12-14T02:05:26.659Z,15.32
2018-12-14T02:07:56.595Z,13.93
2018-12-14T02:10:26.497Z,16.55
2018-12-14T02:12:56.334Z,15.32
2018-12-14T02:15:26.226Z,15.38
2018-12-14T02:17:56.130Z,17.00
2018-12-14T02:20:26.003Z,15.08
2018-12-14T02:22:55.888Z,15.13
2018-12-14T02:25:25.789Z,14.95
2018-12-14T02:27:55.748Z,15.45
2018-12-14T02:30:43.937Z,14.90
2018-12-14T02:33:14.269Z,15.60
2018-12-14T02:35:44.151Z,15.75
2018-12-14T02:38:14.455Z,15.27
2018-12-14T02:40:45.354Z,16.42
2018-12-14T02:43:15.222Z,16.93
2018-12-14T02:45:45.160Z,15.30
2018-12-14T02:48:15.031Z,14.40
2018-12-14T02:50:45.204Z,16.05
2018-12-14T02:53:15.088Z,15.27
2018-12-14T02:55:45.124Z,16.50
2018-12-14T02:58:15.637Z,14.50
2018-12-14T03:00:45.548Z,14.70
2018-12-14T03:03:16.251Z,15.90
2018-12-14T03:05:46.127Z,15.30
2018-12-14T03:08:16.032Z,13.87
2018-12-14T03:10:46.168Z,14.13
2018-12-14T03:13:16.040Z,14.78
2018-12-14T03:15:45.987Z,13.70
2018-12-14T03:18:15.875Z,14.63
2018-12-14T03:20:45.864Z,17.20
2018-12-14T03:23:15.798Z,14.73
2018-12-14T03:25:46.074Z,15.18
2018-12-14T03:28:15.913Z,16.23
2018-12-14T03:30:45.879Z,16.73
2018-12-14T03:33:15.903Z,15.38
2018-12-14T03:35:46.402Z,14.18
2018-12-14T03:38:16.541Z,14.67
2018-12-14T03:40:46.421Z,14.68
2018-12-14T03:43:16.329Z,15.13
2018-12-14T03:45:46.267Z,13.85
2018-12-14T03:48:16.183Z,13.78
2018-12-14T03:50:46.111Z,13.18
2018-12-14T03:53:15.956Z,14.57
2018-12-14T03:55:45.928Z,14.73
2018-12-14T03:58:16.019Z,14.13
2018-12-14T04:00:46.342Z,15.43
2018-12-14T04:03:16.692Z,14.80
2018-12-14T04:05:46.691Z,16.30
2018-12-14T04:08:16.515Z,13.63
2018-12-14T04:10:46.812Z,14.87
2018-12-14T04:13:16.644Z,16.07
2018-12-14T04:15:46.534Z,15.13
2018-12-14T04:18:16.425Z,15.35
2018-12-14T04:20:46.570Z,14.60
2018-12-14T04:23:16.422Z,13.53
2018-12-14T04:25:46.310Z,16.55
2018-12-14T04:28:19.180Z,15.72
2018-12-14T04:30:50.080Z,14.53
2018-12-14T04:33:19.921Z,14.85
2018-12-14T04:35:50.040Z,15.13
2018-12-14T04:38:19.885Z,14.97
2018-12-14T04:40:50.801Z,14.30
2018-12-14T04:43:20.615Z,13.90
2018-12-14T04:45:50.471Z,13.43
2018-12-14T04:48:20.362Z,15.40
2018-12-14T04:50:50.280Z,14.50
2018-12-14T04:53:20.138Z,14.07
2018-12-14T04:55:50.029Z,13.40
2018-12-14T04:58:19.946Z,14.95
2018-12-14T05:00:49.897Z,13.72
2018-12-14T05:03:19.834Z,15.83
2018-12-14T05:05:49.782Z,14.10
2018-12-14T05:08:19.635Z,14.10
2018-12-14T05:10:49.551Z,15.55
2018-12-14T05:13:19.502Z,14.38
2018-12-14T05:15:49.379Z,15.48
2018-12-14T05:18:19.428Z,15.05
2018-12-14T05:20:49.388Z,14.93
2018-12-14T05:23:19.260Z,15.17
2018-12-14T05:25:49.226Z,14.83
2018-12-14T05:28:19.186Z,13.25
2018-12-14T05:30:49.112Z,14.13
2018-12-14T05:33:19.108Z,15.03
2018-12-14T05:35:48.995Z,14.05
2018-12-14T05:38:18.880Z,13.35
2018-12-14T05:40:48.734Z,13.58
2018-12-14T05:43:18.602Z,14.35
2018-12-14T05:45:49.316Z,12.07
2018-12-14T05:48:20.286Z,12.53
2018-12-14T05:50:51.242Z,13.15
2018-12-14T05:53:21.131Z,13.07
2018-12-14T05:55:51.000Z,13.53
2018-12-14T05:58:20.858Z,14.20
2018-12-14T06:00:50.782Z,12.00
2018-12-14T06:03:20.645Z,12.70
2018-12-14T06:05:50.487Z,12.43
2018-12-14T06:08:20.341Z,12.30
2018-12-14T06:10:50.333Z,12.47
2018-12-14T06:13:20.169Z,13.00
2018-12-14T06:15:50.160Z,12.70
2018-12-14T06:18:20.858Z,12.00
2018-12-14T06:20:50.772Z,13.83
2018-12-14T06:23:20.852Z,13.60
2018-12-14T06:25:51.971Z,14.20
2018-12-14T06:28:22.154Z,12.28
2018-12-14T06:30:52.414Z,13.50
2018-12-14T06:33:22.262Z,13.00
2018-12-14T06:35:52.164Z,13.55
2018-12-14T06:38:22.174Z,13.40
2018-12-14T06:40:52.200Z,14.20
2018-12-14T06:43:22.092Z,14.25
2018-12-14T06:45:52.020Z,14.43
2018-12-14T06:48:21.875Z,13.43
2018-12-14T06:50:52.048Z,12.73
2018-12-14T06:53:23.012Z,15.07
2018-12-14T06:55:52.871Z,14.98
2018-12-14T06:58:23.373Z,15.13
2018-12-14T07:00:54.672Z,14.43
2018-12-14T07:03:24.578Z,14.20
2018-12-14T07:05:54.433Z,14.35
2018-12-14T07:08:24.773Z,14.70
2018-12-14T07:10:54.629Z,14.53
2018-12-14T07:13:24.642Z,15.53
2018-12-14T07:15:54.500Z,13.60
2018-12-14T07:18:24.405Z,15.10
2018-12-14T07:20:54.910Z,15.50
2018-12-14T07:23:24.766Z,14.60
2018-12-14T07:25:54.661Z,14.10
2018-12-14T07:28:24.888Z,14.75
2018-12-14T07:30:54.798Z,14.00
2018-12-14T07:33:24.703Z,14.73
2018-12-14T07:35:54.781Z,13.05
2018-12-14T07:38:24.932Z,13.95
2018-12-14T07:40:55.108Z,15.95
2018-12-14T07:43:28.224Z,14.75
2018-12-14T07:45:56.868Z,14.55
2018-12-14T07:48:27.660Z,14.00
2018-12-14T07:50:57.612Z,15.00
2018-12-14T07:53:27.490Z,14.17
2018-12-14T07:55:57.401Z,13.68
2018-12-14T07:58:27.328Z,13.83
2018-12-14T08:00:57.375Z,14.18
2018-12-14T08:03:27.244Z,14.85
2018-12-14T08:05:57.484Z,13.95
2018-12-14T08:08:27.394Z,13.03
2018-12-14T08:10:57.401Z,14.15
2018-12-14T08:13:27.291Z,14.07
2018-12-14T08:15:57.501Z,14.03
2018-12-14T08:18:27.386Z,15.58
2018-12-14T08:20:57.381Z,14.50
2018-12-14T08:23:27.345Z,14.07
2018-12-14T08:25:57.221Z,14.50
2018-12-14T08:28:27.268Z,14.15
2018-12-14T08:30:57.322Z,13.50
2018-12-14T08:33:27.376Z,14.58
2018-12-14T08:35:59.341Z,13.98
2018-12-14T08:38:29.247Z,14.17
2018-12-14T08:40:59.198Z,14.13
2018-12-14T08:43:29.178Z,14.43
2018-12-14T08:45:59.723Z,15.93
2018-12-14T08:48:30.863Z,16.17
2018-12-14T08:51:00.968Z,14.95
2018-12-14T08:53:31.065Z,14.40
2018-12-14T08:56:01.089Z,14.18
2018-12-14T08:58:30.942Z,14.87
2018-12-14T09:01:01.323Z,14.30
2018-12-14T09:03:31.261Z,13.68
2018-12-14T09:06:01.825Z,14.73
2018-12-14T09:08:31.972Z,14.00
2018-12-14T09:11:02.008Z,14.93
2018-12-14T09:13:32.059Z,14.33
2018-12-14T09:16:02.108Z,14.40
2018-12-14T09:18:31.948Z,14.60
2018-12-14T09:21:02.031Z,14.23
2018-12-14T09:23:32.029Z,12.53
2018-12-14T09:26:02.224Z,13.80
2018-12-14T09:28:32.564Z,12.98
2018-12-14T09:31:03.119Z,12.80
2018-12-14T09:33:33.199Z,14.95
2018-12-14T09:36:04.264Z,12.53
2018-12-14T09:38:34.142Z,14.57
2018-12-14T09:41:04.339Z,13.25
2018-12-14T09:43:34.360Z,14.13
2018-12-14T09:46:04.330Z,14.80
2018-12-14T09:48:34.216Z,14.50
2018-12-14T09:51:04.373Z,13.18
2018-12-14T09:53:34.257Z,13.80
2018-12-14T09:56:04.256Z,14.45
2018-12-14T09:58:34.140Z,14.07
2018-12-14T10:01:04.811Z,13.15
2018-12-14T10:03:35.092Z,14.70
2018-12-14T10:06:05.192Z,15.40
2018-12-14T10:08:35.068Z,13.97
2018-12-14T10:11:05.291Z,13.35
2018-12-14T10:13:35.195Z,13.40
2018-12-14T10:16:05.467Z,14.38
2018-12-14T10:18:36.051Z,12.93
2018-12-14T10:21:05.932Z,14.43
2018-12-14T10:23:35.887Z,12.50
2018-12-14T10:26:06.316Z,14.30
2018-12-14T10:28:36.706Z,13.68
2018-12-14T10:31:06.785Z,13.72
2018-12-14T10:33:36.636Z,14.85
2018-12-14T10:36:06.750Z,13.03
2018-12-14T10:38:36.562Z,13.87
2018-12-14T10:41:06.782Z,14.07
2018-12-14T10:43:36.835Z,14.35
2018-12-14T10:46:06.750Z,13.20
2018-12-14T10:48:37.184Z,13.68
2018-12-14T10:51:07.054Z,13.93
2018-12-14T10:53:37.114Z,12.95
2018-12-14T10:56:07.020Z,13.45
2018-12-14T10:58:36.970Z,14.28
2018-12-14T11:01:14.401Z,14.00
2018-12-14T11:03:44.973Z,14.15
2018-12-14T11:06:14.854Z,12.82
2018-12-14T11:08:44.767Z,13.60
2018-12-14T11:11:14.810Z,12.10
2018-12-14T11:13:44.924Z,13.45
2018-12-14T11:16:14.800Z,13.70
2018-12-14T11:18:44.846Z,13.13
2018-12-14T11:21:15.349Z,13.22
2018-12-14T11:23:45.500Z,11.63
2018-12-14T11:26:15.455Z,11.83
2018-12-14T11:28:45.399Z,11.88
2018-12-14T11:31:15.814Z,11.40
2018-12-14T11:33:45.639Z,13.53
2018-12-14T11:36:16.654Z,11.75
2018-12-14T11:38:46.602Z,12.90
2018-12-14T11:41:18.520Z,13.25
2018-12-14T11:43:48.433Z,11.73
2018-12-14T11:46:18.271Z,12.93
2018-12-14T11:48:48.208Z,12.13
2018-12-14T11:51:22.066Z,13.62
2018-12-14T11:53:52.673Z,11.12
2018-12-14T11:56:22.704Z,12.98
2018-12-14T11:58:52.709Z,13.10
2018-12-14T12:01:22.634Z,12.60
2018-12-14T12:03:53.111Z,11.60
2018-12-14T12:06:22.998Z,12.35
2018-12-14T12:08:53.040Z,11.33
2018-12-14T12:11:22.948Z,12.60
2018-12-14T12:13:52.850Z,12.13
2018-12-14T12:16:22.761Z,11.80
2018-12-14T12:18:52.620Z,13.13
2018-12-14T12:21:22.572Z,11.65
2018-12-14T12:23:55.506Z,11.83
2018-12-14T12:26:24.334Z,11.80
2018-12-14T12:28:54.273Z,12.60
2018-12-14T12:31:24.719Z,11.93
2018-12-14T12:33:54.564Z,13.55
2018-12-14T12:36:24.494Z,12.40
2018-12-14T12:38:54.952Z,12.60
2018-12-14T12:41:24.851Z,12.43
2018-12-14T12:43:54.790Z,10.82
2018-12-14T12:46:25.508Z,11.63
2018-12-14T12:48:55.542Z,12.03
2018-12-14T12:51:25.737Z,11.40
2018-12-14T12:53:55.598Z,11.10
2018-12-14T12:56:25.908Z,12.50
2018-12-14T12:58:56.891Z,11.30
2018-12-14T13:01:26.923Z,12.45
2018-12-14T13:03:57.700Z,10.40
2018-12-14T13:06:27.577Z,15.72
2018-12-14T13:08:57.494Z,18.43
2018-12-14T13:11:27.484Z,15.35
2018-12-14T13:13:57.437Z,12.30
2018-12-14T13:16:27.905Z,11.68
2018-12-14T13:18:57.818Z,12.60
2018-12-14T13:21:27.658Z,14.13
2018-12-14T13:23:57.619Z,12.67
2018-12-14T13:26:27.934Z,12.40
2018-12-14T13:28:57.914Z,12.20
2018-12-14T13:31:27.780Z,12.10
2018-12-14T13:33:57.890Z,13.28
2018-12-14T13:36:28.729Z,13.13
2018-12-14T13:38:58.725Z,13.60
2018-12-14T13:41:28.659Z,12.35
2018-12-14T13:43:58.625Z,12.68
2018-12-14T13:46:28.851Z,13.13
2018-12-14T13:49:02.812Z,12.70
2018-12-14T13:51:30.951Z,12.73
2018-12-14T13:54:00.899Z,12.90
2018-12-14T13:56:30.832Z,11.57
2018-12-14T13:59:00.854Z,13.20
2018-12-14T14:01:30.763Z,13.15
2018-12-14T14:04:01.174Z,13.13
2018-12-14T14:06:31.131Z,13.13
2018-12-14T14:09:00.972Z,13.18
2018-12-14T14:11:31.032Z,10.80
2018-12-14T14:14:03.522Z,13.50
2018-12-14T14:16:33.759Z,11.35
2018-12-14T14:19:03.843Z,11.20
2018-12-14T14:21:33.743Z,11.43
2018-12-14T14:24:03.683Z,11.40
2018-12-14T14:26:34.106Z,10.70
2018-12-14T14:29:04.223Z,10.88
2018-12-14T14:31:34.148Z,14.87
2018-12-14T14:34:04.076Z,12.05
2018-12-14T14:36:34.756Z,12.90
2018-12-14T14:39:07.671Z,13.20
2018-12-14T14:41:37.614Z,12.70
2018-12-14T14:44:07.532Z,13.13
2018-12-14T14:46:37.656Z,11.88
2018-12-14T14:49:07.619Z,13.58
2018-12-14T14:51:37.457Z,13.62
2018-12-14T14:54:07.596Z,12.30
2018-12-14T14:56:37.477Z,13.72
2018-12-14T14:59:07.497Z,12.93
2018-12-14T15:01:37.516Z,12.05
2018-12-14T15:04:07.435Z,11.35
2018-12-14T15:06:37.269Z,11.15
2018-12-14T15:09:09.524Z,11.50
2018-12-14T15:11:39.595Z,10.53
2018-12-14T15:14:10.325Z,12.43
2018-12-14T15:16:40.207Z,12.10
2018-12-14T15:19:11.936Z,11.78
2018-12-14T15:21:42.033Z,11.38
2018-12-14T15:24:11.981Z,10.13
2018-12-14T15:26:41.929Z,10.25
2018-12-14T15:29:11.885Z,10.78
2018-12-14T15:31:43.427Z,11.43
2018-12-14T15:34:14.398Z,10.53
2018-12-14T15:36:44.687Z,11.93
2018-12-14T15:39:14.577Z,14.30
2018-12-14T15:41:44.429Z,14.87
2018-12-14T15:44:14.423Z,12.95
2018-12-14T15:46:44.443Z,14.03
2018-12-14T15:49:14.481Z,15.95
2018-12-14T15:51:44.353Z,13.78
2018-12-14T15:54:14.369Z,14.30
2018-12-14T15:56:44.346Z,12.43
2018-12-14T15:59:15.810Z,11.95
2018-12-14T16:01:46.282Z,11.38
2018-12-14T16:04:16.177Z,10.72
2018-12-14T16:06:46.256Z,11.75
2018-12-14T16:09:16.256Z,11.05
2018-12-14T16:11:46.310Z,11.05
2018-12-14T16:14:17.225Z,10.85
2018-12-14T16:16:47.206Z,11.03
2018-12-14T16:19:17.123Z,12.95
2018-12-14T16:21:47.114Z,11.75
2018-12-14T16:24:17.060Z,12.03
2018-12-14T16:26:47.045Z,11.63
2018-12-14T16:29:16.990Z,11.75
2018-12-14T16:31:46.898Z,12.47
2018-12-14T16:34:17.832Z,11.85
2018-12-14T16:36:48.029Z,12.50
2018-12-14T16:39:18.203Z,12.67
2018-12-14T16:41:48.267Z,12.53
2018-12-14T16:44:18.218Z,12.13
2018-12-14T16:46:48.231Z,12.13
2018-12-14T16:49:18.289Z,11.95
2018-12-14T16:51:48.261Z,13.18
2018-12-14T16:54:18.155Z,14.47
2018-12-14T16:56:48.315Z,13.90
2018-12-14T16:59:18.291Z,12.68
2018-12-14T17:01:48.379Z,12.85
2018-12-14T17:04:18.437Z,12.75
2018-12-14T17:06:48.495Z,14.15
2018-12-14T17:09:18.491Z,12.87
2018-12-14T17:11:48.527Z,13.30
2018-12-14T17:14:18.524Z,13.72
2018-12-14T17:16:48.562Z,11.75
2018-12-14T17:19:18.916Z,13.20
2018-12-14T17:21:49.018Z,14.28
2018-12-14T17:24:19.858Z,12.50
2018-12-14T17:26:50.096Z,13.38
2018-12-14T17:29:20.178Z,12.98
2018-12-14T17:31:50.045Z,13.15
2018-12-14T17:34:20.105Z,14.00
2018-12-14T17:36:51.502Z,14.20
2018-12-14T17:39:22.154Z,13.27
2018-12-14T17:41:52.446Z,14.05
2018-12-14T17:44:22.408Z,13.40
2018-12-14T17:46:52.719Z,13.83
2018-12-14T17:49:22.894Z,13.90
2018-12-14T17:51:53.033Z,14.10
2018-12-14T17:54:23.063Z,13.43
2018-12-14T17:56:53.436Z,11.70
2018-12-14T17:59:24.174Z,13.13
2018-12-14T18:01:54.562Z,13.30
2018-12-14T18:04:24.507Z,14.65
2018-12-14T18:06:54.399Z,16.85
2018-12-14T18:09:24.277Z,15.47
2018-12-14T18:11:54.183Z,13.20
2018-12-14T18:14:24.113Z,13.22
2018-12-14T18:16:54.409Z,12.85
2018-12-14T18:19:24.444Z,12.50
2018-12-14T18:21:54.452Z,13.15
2018-12-14T18:24:24.306Z,13.00
2018-12-14T18:26:54.264Z,11.30
2018-12-14T18:29:24.298Z,14.65
2018-12-14T18:31:54.371Z,13.30
2018-12-14T18:34:24.337Z,13.50
2018-12-14T18:36:54.229Z,12.98
2018-12-14T18:39:24.116Z,13.43
2018-12-14T18:41:54.154Z,13.08
2018-12-14T18:44:24.095Z,13.68
2018-12-14T18:46:54.093Z,14.00
2018-12-14T18:49:24.059Z,12.85
2018-12-14T18:51:54.197Z,15.55
2018-12-14T18:54:25.231Z,13.32
2018-12-14T18:56:56.762Z,13.38
2018-12-14T18:59:27.332Z,13.38
2018-12-14T19:01:58.830Z,15.20
2018-12-14T19:04:29.144Z,12.95
2018-12-14T19:07:00.228Z,12.10
2018-12-14T19:09:31.218Z,13.03
2018-12-14T19:12:02.187Z,13.15
2018-12-14T19:14:32.617Z,12.58
2018-12-14T19:17:03.548Z,17.10
2018-12-14T19:19:34.505Z,13.90
2018-12-14T19:22:05.834Z,13.40
2018-12-14T19:24:36.529Z,13.70
2018-12-14T19:27:07.795Z,12.78
2018-12-14T19:29:37.841Z,12.68
2018-12-14T19:32:09.343Z,13.35
2018-12-14T19:34:40.174Z,14.00
2018-12-14T19:37:10.411Z,13.55
2018-12-14T19:39:41.321Z,14.57
2018-12-14T19:42:12.353Z,14.07
2018-12-14T19:44:43.257Z,14.15
2018-12-14T19:47:13.840Z,13.22
2018-12-14T19:49:45.423Z,14.30
2018-12-14T19:52:16.593Z,14.45
2018-12-14T19:54:47.184Z,14.30
2018-12-14T19:57:18.650Z,13.75
2018-12-14T19:59:48.836Z,12.90
2018-12-14T20:02:19.071Z,12.93
2018-12-14T20:04:49.156Z,13.65
2018-12-14T20:07:19.764Z,14.00
2018-12-14T20:09:49.787Z,15.87
2018-12-14T20:12:19.749Z,14.55
2018-12-14T20:14:49.886Z,15.60
2018-12-14T20:17:19.912Z,15.20
2018-12-14T20:19:50.020Z,14.07
2018-12-14T20:22:20.536Z,13.93
2018-12-14T20:24:51.202Z,14.10
2018-12-14T20:27:22.797Z,14.00
2018-12-14T20:29:53.255Z,13.13
2018-12-14T20:32:23.208Z,12.85
2018-12-14T20:34:53.986Z,13.40
2018-12-14T20:37:24.546Z,12.30
2018-12-14T20:39:54.492Z,12.00
2018-12-14T20:42:24.508Z,12.60
2018-12-14T20:44:54.570Z,12.90
2018-12-14T20:47:24.567Z,15.55
2018-12-14T20:49:55.099Z,16.97
2018-12-14T20:52:25.240Z,13.70
2018-12-14T20:54:55.220Z,12.20
2018-12-14T20:57:25.227Z,13.15
2018-12-14T20:59:55.287Z,12.73
2018-12-14T21:02:25.456Z,15.25
2018-12-14T21:04:55.507Z,15.05
2018-12-14T21:07:25.480Z,14.23
2018-12-14T21:09:55.577Z,15.03
2018-12-14T21:12:25.645Z,13.62
2018-12-14T21:14:55.677Z,14.23
2018-12-14T21:17:25.683Z,13.15
2018-12-14T21:19:55.782Z,15.28
2018-12-14T21:22:26.200Z,14.03
2018-12-14T21:24:56.936Z,13.33
2018-12-14T21:27:26.899Z,13.40
2018-12-14T21:29:57.029Z,16.30
2018-12-14T21:32:27.656Z,12.45
2018-12-14T21:34:57.616Z,14.30
2018-12-14T21:37:27.490Z,16.42
2018-12-14T21:39:57.437Z,14.70
2018-12-14T21:42:28.270Z,13.55
2018-12-14T21:44:58.406Z,12.73
2018-12-14T21:47:28.427Z,11.78
2018-12-14T21:49:59.091Z,11.88
2018-12-14T21:52:29.283Z,11.85
2018-12-14T21:54:59.255Z,13.28
2018-12-14T21:57:29.173Z,11.60
2018-12-14T21:59:59.128Z,14.00
2018-12-14T22:02:29.130Z,11.90
2018-12-14T22:04:59.185Z,12.23
2018-12-14T22:07:29.159Z,12.45
2018-12-14T22:09:59.277Z,14.70
2018-12-14T22:12:29.443Z,12.18
2018-12-14T22:14:59.425Z,11.45
2018-12-14T22:17:29.858Z,11.55
2018-12-14T22:19:59.857Z,12.35
2018-12-14T22:22:30.090Z,12.53
2018-12-14T22:25:00.121Z,12.60
2018-12-14T22:27:30.096Z,13.05
2018-12-14T22:30:00.062Z,12.58
2018-12-14T22:32:30.032Z,13.05
2018-12-14T22:34:59.954Z,12.75
2018-12-14T22:37:29.884Z,13.15
2018-12-14T22:40:00.061Z,13.13
2018-12-14T22:42:30.678Z,14.45
2018-12-14T22:45:01.448Z,13.30
2018-12-14T22:47:31.399Z,13.72
2018-12-14T22:50:01.370Z,14.70
2018-12-14T22:52:31.385Z,13.95
2018-12-14T22:55:01.311Z,14.60
2018-12-14T22:57:31.618Z,12.65
2018-12-14T23:00:01.620Z,13.00
2018-12-14T23:02:31.651Z,12.80
2018-12-14T23:05:01.649Z,13.95
2018-12-14T23:07:31.509Z,14.00
2018-12-14T23:10:01.441Z,12.60
2018-12-14T23:12:32.347Z,14.10
2018-12-14T23:15:02.262Z,12.50
2018-12-14T23:17:32.208Z,13.05
2018-12-14T23:20:02.109Z,12.95
2018-12-14T23:22:32.093Z,13.00
2018-12-14T23:25:01.981Z,12.90
2018-12-14T23:27:31.940Z,11.95
2018-12-14T23:30:01.889Z,12.68
2018-12-14T23:32:31.867Z,11.22
2018-12-14T23:35:02.095Z,12.05
2018-12-14T23:37:32.094Z,12.10
2018-12-14T23:40:02.140Z,13.90
2018-12-14T23:42:32.204Z,13.88
2018-12-14T23:45:02.418Z,13.48
2018-12-14T23:47:32.299Z,12.40
2018-12-14T23:50:02.279Z,12.03
2018-12-14T23:52:32.158Z,11.83
2018-12-14T23:55:02.134Z,12.20
2018-12-14T23:57:32.000Z,11.70
